sensor_id;sensor_type;location;lat;lon;timestamp;temperature;humidity
19536;HTU21D;9913;51.168;4.124;2023-02-15T00:00:16;2.49;70.22
19536;HTU21D;9913;51.168;4.124;2023-02-15T00:02:44;2.46;69.95
19536;HTU21D;9913;51.168;4.124;2023-02-15T00:05:12;2.50;69.94
19536;HTU21D;9913;51.168;4.124;2023-02-15T00:07:41;2.62;70.13
19536;HTU21D;9913;51.168;4.124;2023-02-15T00:10:09;2.82;70.53
19536;HTU21D;9913;51.168;4.124;2023-02-15T00:12:39;2.89;70.77
19536;HTU21D;9913;51.168;4.124;2023-02-15T00:15:08;2.91;70.55
19536;HTU21D;9913;51.168;4.124;2023-02-15T00:17:38;2.91;70.43
19536;HTU21D;9913;51.168;4.124;2023-02-15T00:20:07;2.90;70.45
19536;HTU21D;9913;51.168;4.124;2023-02-15T00:22:35;2.87;70.42
19536;HTU21D;9913;51.168;4.124;2023-02-15T00:25:04;2.91;70.42
19536;HTU21D;9913;51.168;4.124;2023-02-15T00:27:33;2.91;70.46
19536;HTU21D;9913;51.168;4.124;2023-02-15T00:30:02;2.87;70.61
19536;HTU21D;9913;51.168;4.124;2023-02-15T00:32:32;2.87;70.79
19536;HTU21D;9913;51.168;4.124;2023-02-15T00:35:01;2.84;70.82
19536;HTU21D;9913;51.168;4.124;2023-02-15T00:37:30;2.83;70.93
19536;HTU21D;9913;51.168;4.124;2023-02-15T00:39:58;2.76;71.12
19536;HTU21D;9913;51.168;4.124;2023-02-15T00:42:26;2.72;71.02
19536;HTU21D;9913;51.168;4.124;2023-02-15T00:44:54;2.68;71.03
19536;HTU21D;9913;51.168;4.124;2023-02-15T00:47:23;2.67;71.32
19536;HTU21D;9913;51.168;4.124;2023-02-15T00:49:53;2.62;71.32
19536;HTU21D;9913;51.168;4.124;2023-02-15T00:52:22;2.66;71.25
19536;HTU21D;9913;51.168;4.124;2023-02-15T00:54:50;2.79;71.20
19536;HTU21D;9913;51.168;4.124;2023-02-15T00:57:18;2.67;70.90
19536;HTU21D;9913;51.168;4.124;2023-02-15T00:59:46;2.61;70.86
19536;HTU21D;9913;51.168;4.124;2023-02-15T01:02:15;2.51;70.84
19536;HTU21D;9913;51.168;4.124;2023-02-15T01:04:46;2.46;70.94
19536;HTU21D;9913;51.168;4.124;2023-02-15T01:07:17;2.39;71.00
19536;HTU21D;9913;51.168;4.124;2023-02-15T01:09:45;2.30;71.04
19536;HTU21D;9913;51.168;4.124;2023-02-15T01:12:13;2.25;71.16
19536;HTU21D;9913;51.168;4.124;2023-02-15T01:14:42;2.20;71.29
19536;HTU21D;9913;51.168;4.124;2023-02-15T01:17:10;2.17;71.37
19536;HTU21D;9913;51.168;4.124;2023-02-15T01:19:38;2.11;71.33
19536;HTU21D;9913;51.168;4.124;2023-02-15T01:22:06;2.10;71.24
19536;HTU21D;9913;51.168;4.124;2023-02-15T01:24:36;2.01;71.28
19536;HTU21D;9913;51.168;4.124;2023-02-15T01:27:05;2.03;71.48
19536;HTU21D;9913;51.168;4.124;2023-02-15T01:29:33;2.06;71.38
19536;HTU21D;9913;51.168;4.124;2023-02-15T01:32:01;2.10;71.54
19536;HTU21D;9913;51.168;4.124;2023-02-15T01:34:30;2.11;71.51
19536;HTU21D;9913;51.168;4.124;2023-02-15T01:36:58;2.22;71.54
19536;HTU21D;9913;51.168;4.124;2023-02-15T01:39:26;2.10;71.44
19536;HTU21D;9913;51.168;4.124;2023-02-15T01:41:57;2.05;71.35
19536;HTU21D;9913;51.168;4.124;2023-02-15T01:44:47;2.01;71.39
19536;HTU21D;9913;51.168;4.124;2023-02-15T01:47:19;2.00;71.32
19536;HTU21D;9913;51.168;4.124;2023-02-15T01:49:48;1.98;71.28
19536;HTU21D;9913;51.168;4.124;2023-02-15T01:52:20;1.98;71.29
19536;HTU21D;9913;51.168;4.124;2023-02-15T01:54:49;1.94;71.31
19536;HTU21D;9913;51.168;4.124;2023-02-15T01:57:22;1.94;71.35
19536;HTU21D;9913;51.168;4.124;2023-02-15T01:59:56;1.92;71.36
19536;HTU21D;9913;51.168;4.124;2023-02-15T02:02:27;1.90;71.29
19536;HTU21D;9913;51.168;4.124;2023-02-15T02:04:58;1.90;71.29
19536;HTU21D;9913;51.168;4.124;2023-02-15T02:07:33;1.94;71.35
19536;HTU21D;9913;51.168;4.124;2023-02-15T02:10:03;1.94;71.42
19536;HTU21D;9913;51.168;4.124;2023-02-15T02:12:34;1.93;71.46
19536;HTU21D;9913;51.168;4.124;2023-02-15T02:15:04;1.96;71.55
19536;HTU21D;9913;51.168;4.124;2023-02-15T02:17:42;1.93;71.62
19536;HTU21D;9913;51.168;4.124;2023-02-15T02:20:27;1.93;71.59
19536;HTU21D;9913;51.168;4.124;2023-02-15T02:23:10;1.93;71.62
19536;HTU21D;9913;51.168;4.124;2023-02-15T02:25:59;1.86;71.90
19536;HTU21D;9913;51.168;4.124;2023-02-15T02:28:55;1.86;71.79
19536;HTU21D;9913;51.168;4.124;2023-02-15T02:31:40;1.80;71.77
19536;HTU21D;9913;51.168;4.124;2023-02-15T02:34:16;1.76;71.67
19536;HTU21D;9913;51.168;4.124;2023-02-15T02:36:49;1.77;71.80
19536;HTU21D;9913;51.168;4.124;2023-02-15T02:39:30;1.72;72.04
19536;HTU21D;9913;51.168;4.124;2023-02-15T02:42:06;1.71;72.04
19536;HTU21D;9913;51.168;4.124;2023-02-15T02:44:41;1.69;71.84
19536;HTU21D;9913;51.168;4.124;2023-02-15T02:47:15;1.67;71.79
19536;HTU21D;9913;51.168;4.124;2023-02-15T02:49:45;1.68;71.77
19536;HTU21D;9913;51.168;4.124;2023-02-15T02:52:47;1.78;71.90
19536;HTU21D;9913;51.168;4.124;2023-02-15T02:55:18;1.92;72.34
19536;HTU21D;9913;51.168;4.124;2023-02-15T02:57:53;2.00;72.67
19536;HTU21D;9913;51.168;4.124;2023-02-15T03:00:23;2.03;72.59
19536;HTU21D;9913;51.168;4.124;2023-02-15T03:03:00;1.93;72.21
19536;HTU21D;9913;51.168;4.124;2023-02-15T03:05:34;1.86;71.88
19536;HTU21D;9913;51.168;4.124;2023-02-15T03:08:06;1.82;71.77
19536;HTU21D;9913;51.168;4.124;2023-02-15T03:10:38;1.80;71.84
19536;HTU21D;9913;51.168;4.124;2023-02-15T03:13:07;1.79;71.92
19536;HTU21D;9913;51.168;4.124;2023-02-15T03:15:38;1.80;72.00
19536;HTU21D;9913;51.168;4.124;2023-02-15T03:18:28;1.79;72.03
19536;HTU21D;9913;51.168;4.124;2023-02-15T03:21:01;1.81;72.02
19536;HTU21D;9913;51.168;4.124;2023-02-15T03:23:32;2.01;72.61
19536;HTU21D;9913;51.168;4.124;2023-02-15T03:26:03;2.28;73.34
19536;HTU21D;9913;51.168;4.124;2023-02-15T03:28:38;2.31;73.69
19536;HTU21D;9913;51.168;4.124;2023-02-15T03:31:10;2.31;73.62
19536;HTU21D;9913;51.168;4.124;2023-02-15T03:33:43;2.38;74.22
19536;HTU21D;9913;51.168;4.124;2023-02-15T03:36:20;2.44;73.97
19536;HTU21D;9913;51.168;4.124;2023-02-15T03:38:54;2.42;73.67
19536;HTU21D;9913;51.168;4.124;2023-02-15T03:41:29;2.34;73.45
19536;HTU21D;9913;51.168;4.124;2023-02-15T03:44:04;2.41;73.27
19536;HTU21D;9913;51.168;4.124;2023-02-15T03:46:39;2.37;73.40
19536;HTU21D;9913;51.168;4.124;2023-02-15T03:49:13;2.38;73.22
19536;HTU21D;9913;51.168;4.124;2023-02-15T03:51:46;2.28;72.95
19536;HTU21D;9913;51.168;4.124;2023-02-15T03:54:20;2.15;72.74
19536;HTU21D;9913;51.168;4.124;2023-02-15T03:57:03;2.01;72.53
19536;HTU21D;9913;51.168;4.124;2023-02-15T03:59:49;1.94;72.37
19536;HTU21D;9913;51.168;4.124;2023-02-15T04:02:43;1.85;72.38
19536;HTU21D;9913;51.168;4.124;2023-02-15T04:05:14;1.79;72.45
19536;HTU21D;9913;51.168;4.124;2023-02-15T04:07:44;1.80;72.67
19536;HTU21D;9913;51.168;4.124;2023-02-15T04:10:12;1.86;73.09
19536;HTU21D;9913;51.168;4.124;2023-02-15T04:12:58;1.83;73.53
19536;HTU21D;9913;51.168;4.124;2023-02-15T04:15:27;1.83;73.47
19536;HTU21D;9913;51.168;4.124;2023-02-15T04:18:14;1.98;74.14
19536;HTU21D;9913;51.168;4.124;2023-02-15T04:20:43;1.99;74.57
19536;HTU21D;9913;51.168;4.124;2023-02-15T04:23:31;1.95;74.09
19536;HTU21D;9913;51.168;4.124;2023-02-15T04:26:17;1.92;73.63
19536;HTU21D;9913;51.168;4.124;2023-02-15T04:28:45;1.87;73.52
19536;HTU21D;9913;51.168;4.124;2023-02-15T04:31:13;1.84;73.57
19536;HTU21D;9913;51.168;4.124;2023-02-15T04:33:41;1.82;73.46
19536;HTU21D;9913;51.168;4.124;2023-02-15T04:36:10;1.75;73.49
19536;HTU21D;9913;51.168;4.124;2023-02-15T04:38:40;1.80;73.74
19536;HTU21D;9913;51.168;4.124;2023-02-15T04:41:08;1.87;74.44
19536;HTU21D;9913;51.168;4.124;2023-02-15T04:43:38;1.98;75.06
19536;HTU21D;9913;51.168;4.124;2023-02-15T04:46:06;2.06;74.90
19536;HTU21D;9913;51.168;4.124;2023-02-15T04:48:35;2.07;74.64
19536;HTU21D;9913;51.168;4.124;2023-02-15T04:51:05;2.01;74.15
19536;HTU21D;9913;51.168;4.124;2023-02-15T04:53:34;1.98;73.99
19536;HTU21D;9913;51.168;4.124;2023-02-15T04:56:04;1.82;73.58
19536;HTU21D;9913;51.168;4.124;2023-02-15T04:58:32;1.80;73.41
19536;HTU21D;9913;51.168;4.124;2023-02-15T05:01:02;1.87;74.12
19536;HTU21D;9913;51.168;4.124;2023-02-15T05:03:30;1.86;74.42
19536;HTU21D;9913;51.168;4.124;2023-02-15T05:05:58;1.94;74.61
19536;HTU21D;9913;51.168;4.124;2023-02-15T05:08:27;2.00;74.45
19536;HTU21D;9913;51.168;4.124;2023-02-15T05:10:55;2.13;74.34
19536;HTU21D;9913;51.168;4.124;2023-02-15T05:13:25;2.06;74.13
19536;HTU21D;9913;51.168;4.124;2023-02-15T05:15:53;2.08;73.99
19536;HTU21D;9913;51.168;4.124;2023-02-15T05:18:22;2.08;74.03
19536;HTU21D;9913;51.168;4.124;2023-02-15T05:20:50;2.02;73.70
19536;HTU21D;9913;51.168;4.124;2023-02-15T05:23:19;1.92;73.32
19536;HTU21D;9913;51.168;4.124;2023-02-15T05:25:47;1.78;73.02
19536;HTU21D;9913;51.168;4.124;2023-02-15T05:28:40;1.66;73.03
19536;HTU21D;9913;51.168;4.124;2023-02-15T05:31:11;1.58;73.11
19536;HTU21D;9913;51.168;4.124;2023-02-15T05:33:40;1.57;73.15
19536;HTU21D;9913;51.168;4.124;2023-02-15T05:36:09;1.49;73.09
19536;HTU21D;9913;51.168;4.124;2023-02-15T05:38:38;1.47;73.07
19536;HTU21D;9913;51.168;4.124;2023-02-15T05:41:08;1.49;73.35
19536;HTU21D;9913;51.168;4.124;2023-02-15T05:43:37;1.45;73.47
19536;HTU21D;9913;51.168;4.124;2023-02-15T05:46:07;1.39;73.42
19536;HTU21D;9913;51.168;4.124;2023-02-15T05:48:36;1.33;73.38
19536;HTU21D;9913;51.168;4.124;2023-02-15T05:51:06;1.29;73.41
19536;HTU21D;9913;51.168;4.124;2023-02-15T05:53:37;1.24;73.32
19536;HTU21D;9913;51.168;4.124;2023-02-15T05:56:07;1.21;73.22
19536;HTU21D;9913;51.168;4.124;2023-02-15T05:58:39;1.22;73.50
19536;HTU21D;9913;51.168;4.124;2023-02-15T06:01:13;1.21;73.47
19536;HTU21D;9913;51.168;4.124;2023-02-15T06:03:41;1.35;73.96
19536;HTU21D;9913;51.168;4.124;2023-02-15T06:06:10;1.41;74.65
19536;HTU21D;9913;51.168;4.124;2023-02-15T06:08:38;1.57;75.34
19536;HTU21D;9913;51.168;4.124;2023-02-15T06:11:07;1.82;76.08
19536;HTU21D;9913;51.168;4.124;2023-02-15T06:13:35;1.94;76.27
19536;HTU21D;9913;51.168;4.124;2023-02-15T06:16:05;2.03;75.99
19536;HTU21D;9913;51.168;4.124;2023-02-15T06:18:35;2.05;75.44
19536;HTU21D;9913;51.168;4.124;2023-02-15T06:21:03;2.08;74.95
19536;HTU21D;9913;51.168;4.124;2023-02-15T06:23:31;2.08;74.54
19536;HTU21D;9913;51.168;4.124;2023-02-15T06:26:00;2.08;74.34
19536;HTU21D;9913;51.168;4.124;2023-02-15T06:28:28;2.10;74.35
19536;HTU21D;9913;51.168;4.124;2023-02-15T06:30:56;2.06;74.41
19536;HTU21D;9913;51.168;4.124;2023-02-15T06:33:25;2.11;74.47
19536;HTU21D;9913;51.168;4.124;2023-02-15T06:35:54;2.13;74.41
19536;HTU21D;9913;51.168;4.124;2023-02-15T06:38:23;2.11;74.15
19536;HTU21D;9913;51.168;4.124;2023-02-15T06:40:51;2.12;73.99
19536;HTU21D;9913;51.168;4.124;2023-02-15T06:43:19;2.12;73.90
19536;HTU21D;9913;51.168;4.124;2023-02-15T06:45:48;2.15;73.41
19536;HTU21D;9913;51.168;4.124;2023-02-15T06:48:16;2.16;73.33
19536;HTU21D;9913;51.168;4.124;2023-02-15T06:50:44;2.24;73.38
19536;HTU21D;9913;51.168;4.124;2023-02-15T06:53:14;2.21;73.27
19536;HTU21D;9913;51.168;4.124;2023-02-15T06:55:42;2.24;73.17
19536;HTU21D;9913;51.168;4.124;2023-02-15T06:58:10;2.29;73.08
19536;HTU21D;9913;51.168;4.124;2023-02-15T07:00:39;2.22;72.80
19536;HTU21D;9913;51.168;4.124;2023-02-15T07:03:07;2.29;72.80
19536;HTU21D;9913;51.168;4.124;2023-02-15T07:05:36;2.25;72.71
19536;HTU21D;9913;51.168;4.124;2023-02-15T07:08:04;2.24;72.77
19536;HTU21D;9913;51.168;4.124;2023-02-15T07:10:34;2.25;72.69
19536;HTU21D;9913;51.168;4.124;2023-02-15T07:13:02;2.27;72.55
19536;HTU21D;9913;51.168;4.124;2023-02-15T07:15:29;2.34;72.64
19536;HTU21D;9913;51.168;4.124;2023-02-15T07:17:58;2.32;72.51
19536;HTU21D;9913;51.168;4.124;2023-02-15T07:20:26;2.24;72.46
19536;HTU21D;9913;51.168;4.124;2023-02-15T07:22:55;2.22;72.43
19536;HTU21D;9913;51.168;4.124;2023-02-15T07:25:23;2.28;72.14
19536;HTU21D;9913;51.168;4.124;2023-02-15T07:27:57;2.36;72.13
19536;HTU21D;9913;51.168;4.124;2023-02-15T07:30:25;2.44;72.09
19536;HTU21D;9913;51.168;4.124;2023-02-15T07:32:55;2.49;71.92
19536;HTU21D;9913;51.168;4.124;2023-02-15T07:35:46;2.56;71.69
19536;HTU21D;9913;51.168;4.124;2023-02-15T07:38:15;2.58;71.51
19536;HTU21D;9913;51.168;4.124;2023-02-15T07:40:44;2.55;71.29
19536;HTU21D;9913;51.168;4.124;2023-02-15T07:43:14;2.64;71.15
19536;HTU21D;9913;51.168;4.124;2023-02-15T07:45:43;2.65;71.07
19536;HTU21D;9913;51.168;4.124;2023-02-15T07:48:11;2.68;70.93
19536;HTU21D;9913;51.168;4.124;2023-02-15T07:50:39;2.75;70.58
19536;HTU21D;9913;51.168;4.124;2023-02-15T07:53:08;2.80;70.41
19536;HTU21D;9913;51.168;4.124;2023-02-15T07:55:36;2.85;70.12
19536;HTU21D;9913;51.168;4.124;2023-02-15T07:58:04;2.87;69.92
19536;HTU21D;9913;51.168;4.124;2023-02-15T08:00:34;2.94;69.91
19536;HTU21D;9913;51.168;4.124;2023-02-15T08:03:23;3.05;69.80
19536;HTU21D;9913;51.168;4.124;2023-02-15T08:05:56;3.14;69.57
19536;HTU21D;9913;51.168;4.124;2023-02-15T08:08:26;3.26;69.49
19536;HTU21D;9913;51.168;4.124;2023-02-15T08:11:01;3.32;69.58
19536;HTU21D;9913;51.168;4.124;2023-02-15T08:13:48;3.35;69.29
19536;HTU21D;9913;51.168;4.124;2023-02-15T08:16:25;3.45;69.35
19536;HTU21D;9913;51.168;4.124;2023-02-15T08:18:55;3.49;69.08
19536;HTU21D;9913;51.168;4.124;2023-02-15T08:21:26;3.54;68.95
19536;HTU21D;9913;51.168;4.124;2023-02-15T08:23:55;3.60;69.05
19536;HTU21D;9913;51.168;4.124;2023-02-15T08:26:24;3.68;69.00
19536;HTU21D;9913;51.168;4.124;2023-02-15T08:28:53;3.78;68.86
19536;HTU21D;9913;51.168;4.124;2023-02-15T08:31:22;3.90;68.98
19536;HTU21D;9913;51.168;4.124;2023-02-15T08:33:53;3.98;68.88
19536;HTU21D;9913;51.168;4.124;2023-02-15T08:36:23;4.14;69.16
19536;HTU21D;9913;51.168;4.124;2023-02-15T08:38:52;4.26;68.82
19536;HTU21D;9913;51.168;4.124;2023-02-15T08:41:23;4.35;68.75
19536;HTU21D;9913;51.168;4.124;2023-02-15T08:43:52;4.45;68.94
19536;HTU21D;9913;51.168;4.124;2023-02-15T08:46:22;4.53;68.82
19536;HTU21D;9913;51.168;4.124;2023-02-15T08:48:52;4.63;69.07
19536;HTU21D;9913;51.168;4.124;2023-02-15T08:51:22;4.68;68.81
19536;HTU21D;9913;51.168;4.124;2023-02-15T08:53:52;4.79;68.87
19536;HTU21D;9913;51.168;4.124;2023-02-15T08:56:23;4.75;68.95
19536;HTU21D;9913;51.168;4.124;2023-02-15T08:58:52;4.87;68.89
19536;HTU21D;9913;51.168;4.124;2023-02-15T09:01:27;5.06;68.84
19536;HTU21D;9913;51.168;4.124;2023-02-15T09:03:59;5.18;68.73
19536;HTU21D;9913;51.168;4.124;2023-02-15T09:06:28;5.30;68.65
19536;HTU21D;9913;51.168;4.124;2023-02-15T09:08:57;5.37;69.10
19536;HTU21D;9913;51.168;4.124;2023-02-15T09:11:27;5.53;69.54
19536;HTU21D;9913;51.168;4.124;2023-02-15T09:13:57;5.71;69.85
19536;HTU21D;9913;51.168;4.124;2023-02-15T09:16:27;5.84;69.56
19536;HTU21D;9913;51.168;4.124;2023-02-15T09:18:57;5.95;70.00
19536;HTU21D;9913;51.168;4.124;2023-02-15T09:21:28;6.16;69.71
19536;HTU21D;9913;51.168;4.124;2023-02-15T09:23:58;6.41;69.84
19536;HTU21D;9913;51.168;4.124;2023-02-15T09:26:29;6.44;71.00
19536;HTU21D;9913;51.168;4.124;2023-02-15T09:28:59;6.58;70.49
19536;HTU21D;9913;51.168;4.124;2023-02-15T09:31:29;6.72;70.54
19536;HTU21D;9913;51.168;4.124;2023-02-15T09:34:00;6.55;71.77
19536;HTU21D;9913;51.168;4.124;2023-02-15T09:36:31;6.57;71.41
19536;HTU21D;9913;51.168;4.124;2023-02-15T09:39:04;6.56;70.23
19536;HTU21D;9913;51.168;4.124;2023-02-15T09:42:00;6.61;70.48
19536;HTU21D;9913;51.168;4.124;2023-02-15T09:44:48;6.55;71.07
19536;HTU21D;9913;51.168;4.124;2023-02-15T09:47:40;6.74;70.77
19536;HTU21D;9913;51.168;4.124;2023-02-15T09:50:18;6.97;71.47
19536;HTU21D;9913;51.168;4.124;2023-02-15T09:53:04;7.02;72.14
19536;HTU21D;9913;51.168;4.124;2023-02-15T09:55:48;7.18;71.26
19536;HTU21D;9913;51.168;4.124;2023-02-15T09:58:27;7.34;71.03
19536;HTU21D;9913;51.168;4.124;2023-02-15T10:01:01;7.46;71.67
19536;HTU21D;9913;51.168;4.124;2023-02-15T10:03:41;7.43;71.45
19536;HTU21D;9913;51.168;4.124;2023-02-15T10:06:31;7.31;72.47
19536;HTU21D;9913;51.168;4.124;2023-02-15T10:09:20;7.35;72.19
19536;HTU21D;9913;51.168;4.124;2023-02-15T10:12:06;7.47;72.29
19536;HTU21D;9913;51.168;4.124;2023-02-15T10:14:47;7.48;71.23
19536;HTU21D;9913;51.168;4.124;2023-02-15T10:17:27;7.53;71.13
19536;HTU21D;9913;51.168;4.124;2023-02-15T10:20:08;7.74;70.77
19536;HTU21D;9913;51.168;4.124;2023-02-15T10:22:59;7.92;71.92
19536;HTU21D;9913;51.168;4.124;2023-02-15T10:25:36;8.07;73.40
19536;HTU21D;9913;51.168;4.124;2023-02-15T10:28:19;8.37;71.58
19536;HTU21D;9913;51.168;4.124;2023-02-15T10:30:49;8.56;72.32
19536;HTU21D;9913;51.168;4.124;2023-02-15T10:33:32;8.51;71.74
19536;HTU21D;9913;51.168;4.124;2023-02-15T10:36:11;8.38;72.05
19536;HTU21D;9913;51.168;4.124;2023-02-15T10:38:49;8.55;72.13
19536;HTU21D;9913;51.168;4.124;2023-02-15T10:41:30;8.64;71.01
19536;HTU21D;9913;51.168;4.124;2023-02-15T10:44:17;8.81;71.80
19536;HTU21D;9913;51.168;4.124;2023-02-15T10:47:12;9.09;72.63
19536;HTU21D;9913;51.168;4.124;2023-02-15T10:50:06;9.20;72.09
19536;HTU21D;9913;51.168;4.124;2023-02-15T10:52:50;9.46;73.02
19536;HTU21D;9913;51.168;4.124;2023-02-15T10:55:34;9.65;72.51
19536;HTU21D;9913;51.168;4.124;2023-02-15T10:58:15;9.62;72.67
19536;HTU21D;9913;51.168;4.124;2023-02-15T11:00:48;9.89;73.64
19536;HTU21D;9913;51.168;4.124;2023-02-15T11:03:41;9.79;72.18
19536;HTU21D;9913;51.168;4.124;2023-02-15T11:06:14;9.78;72.48
19536;HTU21D;9913;51.168;4.124;2023-02-15T11:08:46;10.10;72.08
19536;HTU21D;9913;51.168;4.124;2023-02-15T11:11:22;10.15;72.75
19536;HTU21D;9913;51.168;4.124;2023-02-15T11:13:58;10.07;72.03
19536;HTU21D;9913;51.168;4.124;2023-02-15T11:16:30;10.09;72.69
19536;HTU21D;9913;51.168;4.124;2023-02-15T11:19:05;10.21;72.69
19536;HTU21D;9913;51.168;4.124;2023-02-15T11:21:37;10.13;72.51
19536;HTU21D;9913;51.168;4.124;2023-02-15T11:24:10;10.30;73.44
19536;HTU21D;9913;51.168;4.124;2023-02-15T11:26:44;10.42;70.71
19536;HTU21D;9913;51.168;4.124;2023-02-15T11:29:18;10.46;72.83
19536;HTU21D;9913;51.168;4.124;2023-02-15T11:31:54;10.43;71.85
19536;HTU21D;9913;51.168;4.124;2023-02-15T11:34:34;10.40;73.76
19536;HTU21D;9913;51.168;4.124;2023-02-15T11:37:07;10.31;72.90
19536;HTU21D;9913;51.168;4.124;2023-02-15T11:39:37;10.46;71.74
19536;HTU21D;9913;51.168;4.124;2023-02-15T11:42:12;10.51;73.44
19536;HTU21D;9913;51.168;4.124;2023-02-15T11:44:50;10.71;73.10
19536;HTU21D;9913;51.168;4.124;2023-02-15T11:47:21;10.93;72.64
19536;HTU21D;9913;51.168;4.124;2023-02-15T11:49:49;10.92;73.81
19536;HTU21D;9913;51.168;4.124;2023-02-15T11:52:18;10.99;73.74
19536;HTU21D;9913;51.168;4.124;2023-02-15T11:54:48;10.94;71.87
19536;HTU21D;9913;51.168;4.124;2023-02-15T11:57:23;10.88;73.06
19536;HTU21D;9913;51.168;4.124;2023-02-15T11:59:58;10.88;72.93
19536;HTU21D;9913;51.168;4.124;2023-02-15T12:02:35;10.92;72.68
19536;HTU21D;9913;51.168;4.124;2023-02-15T12:05:11;10.88;73.01
19536;HTU21D;9913;51.168;4.124;2023-02-15T12:07:49;11.02;74.47
19536;HTU21D;9913;51.168;4.124;2023-02-15T12:10:22;11.30;73.18
19536;HTU21D;9913;51.168;4.124;2023-02-15T12:13:09;11.57;71.38
19536;HTU21D;9913;51.168;4.124;2023-02-15T12:15:42;11.58;71.93
19536;HTU21D;9913;51.168;4.124;2023-02-15T12:18:20;11.55;71.87
19536;HTU21D;9913;51.168;4.124;2023-02-15T12:20:49;11.53;73.22
19536;HTU21D;9913;51.168;4.124;2023-02-15T12:23:18;11.70;72.08
19536;HTU21D;9913;51.168;4.124;2023-02-15T12:25:52;11.91;72.90
19536;HTU21D;9913;51.168;4.124;2023-02-15T12:28:26;11.84;72.02
19536;HTU21D;9913;51.168;4.124;2023-02-15T12:30:57;11.54;72.67
19536;HTU21D;9913;51.168;4.124;2023-02-15T12:33:29;11.66;72.58
19536;HTU21D;9913;51.168;4.124;2023-02-15T12:36:03;11.77;72.24
19536;HTU21D;9913;51.168;4.124;2023-02-15T12:38:32;11.85;72.61
19536;HTU21D;9913;51.168;4.124;2023-02-15T12:41:05;11.90;71.82
19536;HTU21D;9913;51.168;4.124;2023-02-15T12:44:03;11.78;72.62
19536;HTU21D;9913;51.168;4.124;2023-02-15T12:46:32;11.76;73.06
19536;HTU21D;9913;51.168;4.124;2023-02-15T12:49:07;11.87;71.74
19536;HTU21D;9913;51.168;4.124;2023-02-15T12:51:48;11.76;71.96
19536;HTU21D;9913;51.168;4.124;2023-02-15T12:54:30;11.59;71.33
19536;HTU21D;9913;51.168;4.124;2023-02-15T12:56:59;11.74;73.38
19536;HTU21D;9913;51.168;4.124;2023-02-15T12:59:48;11.74;72.06
19536;HTU21D;9913;51.168;4.124;2023-02-15T13:02:23;11.77;72.54
19536;HTU21D;9913;51.168;4.124;2023-02-15T13:04:54;11.64;71.06
19536;HTU21D;9913;51.168;4.124;2023-02-15T13:07:25;11.70;72.94
19536;HTU21D;9913;51.168;4.124;2023-02-15T13:10:04;11.53;71.38
19536;HTU21D;9913;51.168;4.124;2023-02-15T13:12:32;11.62;71.64
19536;HTU21D;9913;51.168;4.124;2023-02-15T13:15:03;11.75;73.63
19536;HTU21D;9913;51.168;4.124;2023-02-15T13:17:32;11.67;72.02
19536;HTU21D;9913;51.168;4.124;2023-02-15T13:20:04;11.57;72.49
19536;HTU21D;9913;51.168;4.124;2023-02-15T13:22:45;11.60;71.73
19536;HTU21D;9913;51.168;4.124;2023-02-15T13:25:18;11.73;72.03
19536;HTU21D;9913;51.168;4.124;2023-02-15T13:27:51;11.78;72.91
19536;HTU21D;9913;51.168;4.124;2023-02-15T13:30:25;11.84;71.93
19536;HTU21D;9913;51.168;4.124;2023-02-15T13:33:01;11.83;72.47
19536;HTU21D;9913;51.168;4.124;2023-02-15T13:35:38;11.92;72.33
19536;HTU21D;9913;51.168;4.124;2023-02-15T13:38:23;11.86;72.00
19536;HTU21D;9913;51.168;4.124;2023-02-15T13:41:01;11.76;71.96
19536;HTU21D;9913;51.168;4.124;2023-02-15T13:43:40;12.03;72.36
19536;HTU21D;9913;51.168;4.124;2023-02-15T13:46:21;12.15;71.55
19536;HTU21D;9913;51.168;4.124;2023-02-15T13:48:59;12.18;71.76
19536;HTU21D;9913;51.168;4.124;2023-02-15T13:51:35;12.34;72.35
19536;HTU21D;9913;51.168;4.124;2023-02-15T13:54:33;12.33;71.76
19536;HTU21D;9913;51.168;4.124;2023-02-15T13:57:28;12.52;71.84
19536;HTU21D;9913;51.168;4.124;2023-02-15T14:00:09;12.51;72.58
19536;HTU21D;9913;51.168;4.124;2023-02-15T14:03:07;12.41;71.54
19536;HTU21D;9913;51.168;4.124;2023-02-15T14:05:53;12.19;72.21
19536;HTU21D;9913;51.168;4.124;2023-02-15T14:08:38;12.12;72.16
19536;HTU21D;9913;51.168;4.124;2023-02-15T14:11:13;12.18;72.30
19536;HTU21D;9913;51.168;4.124;2023-02-15T14:14:11;12.18;70.30
19536;HTU21D;9913;51.168;4.124;2023-02-15T14:16:51;12.23;71.87
19536;HTU21D;9913;51.168;4.124;2023-02-15T14:19:45;12.29;72.17
19536;HTU21D;9913;51.168;4.124;2023-02-15T14:22:23;12.25;71.42
19536;HTU21D;9913;51.168;4.124;2023-02-15T14:25:05;12.20;72.67
19536;HTU21D;9913;51.168;4.124;2023-02-15T14:27:49;12.35;72.16
19536;HTU21D;9913;51.168;4.124;2023-02-15T14:30:23;12.34;72.67
19536;HTU21D;9913;51.168;4.124;2023-02-15T14:32:55;12.33;71.79
19536;HTU21D;9913;51.168;4.124;2023-02-15T14:35:28;12.38;72.42
19536;HTU21D;9913;51.168;4.124;2023-02-15T14:38:04;12.35;71.69
19536;HTU21D;9913;51.168;4.124;2023-02-15T14:40:40;12.29;71.16
19536;HTU21D;9913;51.168;4.124;2023-02-15T14:43:41;12.45;72.54
19536;HTU21D;9913;51.168;4.124;2023-02-15T14:46:19;12.34;72.16
19536;HTU21D;9913;51.168;4.124;2023-02-15T14:48:50;12.27;72.00
19536;HTU21D;9913;51.168;4.124;2023-02-15T14:54:59;12.13;72.06
19536;HTU21D;9913;51.168;4.124;2023-02-15T14:57:30;12.02;71.93
19536;HTU21D;9913;51.168;4.124;2023-02-15T15:00:36;11.94;72.22
19536;HTU21D;9913;51.168;4.124;2023-02-15T15:03:21;11.92;72.13
19536;HTU21D;9913;51.168;4.124;2023-02-15T15:05:52;11.92;71.92
19536;HTU21D;9913;51.168;4.124;2023-02-15T15:08:26;11.99;71.78
19536;HTU21D;9913;51.168;4.124;2023-02-15T15:14:13;11.89;71.30
19536;HTU21D;9913;51.168;4.124;2023-02-15T15:17:01;11.77;72.63
19536;HTU21D;9913;51.168;4.124;2023-02-15T15:20:05;11.81;71.64
19536;HTU21D;9913;51.168;4.124;2023-02-15T15:22:43;11.66;70.74
19536;HTU21D;9913;51.168;4.124;2023-02-15T15:25:42;11.63;71.64
19536;HTU21D;9913;51.168;4.124;2023-02-15T15:31:18;11.38;72.00
19536;HTU21D;9913;51.168;4.124;2023-02-15T15:34:18;11.37;72.60
19536;HTU21D;9913;51.168;4.124;2023-02-15T15:40:35;11.23;71.77
19536;HTU21D;9913;51.168;4.124;2023-02-15T15:43:35;11.01;70.64
19536;HTU21D;9913;51.168;4.124;2023-02-15T15:46:38;10.92;71.90
19536;HTU21D;9913;51.168;4.124;2023-02-15T15:49:12;10.80;71.58
19536;HTU21D;9913;51.168;4.124;2023-02-15T15:52:12;10.66;72.33
19536;HTU21D;9913;51.168;4.124;2023-02-15T15:54:42;10.55;73.11
19536;HTU21D;9913;51.168;4.124;2023-02-15T15:57:19;10.55;71.55
19536;HTU21D;9913;51.168;4.124;2023-02-15T15:59:50;10.53;70.90
19536;HTU21D;9913;51.168;4.124;2023-02-15T16:02:18;10.44;71.87
19536;HTU21D;9913;51.168;4.124;2023-02-15T16:04:47;10.35;70.81
19536;HTU21D;9913;51.168;4.124;2023-02-15T16:07:26;10.25;70.77
19536;HTU21D;9913;51.168;4.124;2023-02-15T16:09:56;10.16;70.64
19536;HTU21D;9913;51.168;4.124;2023-02-15T16:12:26;10.19;70.30
19536;HTU21D;9913;51.168;4.124;2023-02-15T16:15:01;10.16;70.65
19536;HTU21D;9913;51.168;4.124;2023-02-15T16:17:31;10.13;70.43
19536;HTU21D;9913;51.168;4.124;2023-02-15T16:20:03;10.04;70.28
19536;HTU21D;9913;51.168;4.124;2023-02-15T16:22:38;9.99;70.30
19536;HTU21D;9913;51.168;4.124;2023-02-15T16:28:11;9.82;70.44
19536;HTU21D;9913;51.168;4.124;2023-02-15T16:30:41;9.70;69.75
19536;HTU21D;9913;51.168;4.124;2023-02-15T16:33:12;9.67;70.31
19536;HTU21D;9913;51.168;4.124;2023-02-15T16:35:53;9.68;70.13
19536;HTU21D;9913;51.168;4.124;2023-02-15T16:38:34;9.67;70.55
19536;HTU21D;9913;51.168;4.124;2023-02-15T16:41:13;9.59;70.19
19536;HTU21D;9913;51.168;4.124;2023-02-15T16:43:48;9.54;70.26